Latest Coastal Weather Observations for Low Rocky Point

IDT60701

Issued at 6:02 pm EDT Friday 3 December 2021 (issued every 10 minutes, with the page automatically refreshed every 10 minutes)

About coastal observations | Map of coastal stations | Coastal observations for TAS | Marine services | Other Formats
Station Details ID: 097080 Name: LOW ROCKY POINT Lat: -42.98 Lon: 145.50 Height: 34.0 m
Data from the previous 72 hours. | See also: Recent months at Low Rocky Point
Date/Time
EDT
Wind Sea
Height
m
Swell Vis
km
Cloud Weather Temp
°C
Press
MSL
hPa
Rain since
9am
mm
Dir  Spd
kts
Gust
kts
Height
m
Period
s
Dir
03/06:00pm NW 23 26 - - - - - - - 13.7 1014.8 0.6
03/05:30pm NW 23 28 - - - - - - - 13.9 1015.3 0.2
03/05:00pm NW 21 27 - - - - - - - 14.8 1015.6 0.2
03/04:30pm NW 21 28 - - - - - - - 15.4 1015.7 0.2
03/04:00pm NW 20 25 - - - - - - - 15.2 1015.8 0.2
03/03:30pm NW 17 23 - - - - - - - 15.3 1016.0 0.2
03/03:00pm NW 18 23 - - - - - - - 14.7 1016.4 0.2
03/02:30pm NW 17 21 - - - - - - - 16.4 1016.8 0.2
03/02:00pm NW 17 21 - - - - - - - 15.7 1017.0 0.2
03/01:30pm NW 15 19 - - - - - - - 15.9 1017.2 0.2
03/01:00pm WNW 14 18 - - - - - - - 13.9 1017.5 0.2
03/12:30pm WNW 15 18 - - - - - - - 14.1 1017.6 0.2
03/12:00pm NW 14 17 - - - - - - - 16.2 1017.7 0.0
03/11:30am WNW 13 16 - - - - - - - 15.6 1017.9 0.0
03/11:00am WNW 14 17 - - - - - - - 14.6 1018.1 0.0
03/10:30am WNW 13 16 - - - - - - - 14.5 1018.0 0.0
03/10:00am WNW 13 17 - - - - - - - 14.1 1018.0 0.0
03/09:30am WNW 13 17 - - - - - - - 13.3 1017.9 0.0
03/09:00am W 14 18 - - - - - - - 13.3 1017.8 0.6
03/08:30am W 14 18 - - - - - - - 13.0 1017.7 0.6
03/08:00am W 15 19 - - - - - - - 12.2 1017.4 0.6
03/07:30am W 15 19 - - - - - - - 12.0 1017.2 0.6
03/07:00am W 13 16 - - - - - - - 11.8 1016.9 0.6
03/06:30am W 14 17 - - - - - - - 11.5 1016.5 0.6
03/06:00am W 15 17 - - - - - - - 11.5 1016.1 0.6
03/05:30am WSW 15 18 - - - - - - - 11.6 1015.7 0.6
03/05:00am W 14 17 - - - - - - - 11.5 1015.4 0.6
03/04:30am W 14 17 - - - - - - - 11.5 1015.3 0.6
03/04:00am W 14 17 - - - - - - - 11.4 1015.0 0.6
03/03:30am WSW 14 17 - - - - - - - 11.2 1014.8 0.6
03/03:00am W 14 19 - - - - - - - 11.1 1014.8 0.6
03/02:30am W 13 16 - - - - - - - 11.4 1014.9 0.6
03/02:00am W 15 17 - - - - - - - 11.5 1014.8 0.6
03/01:30am W 19 22 - - - - - - - 11.5 1014.7 0.6
03/01:00am W 15 17 - - - - - - - 11.9 1014.8 0.4
03/12:37am NW 20 25 - - - - - - - 12.6 1014.8 0.0
03/12:30am NW 18 21 - - - - - - - 13.5 1014.6 0.0
03/12:00am NW 19 23 - - - - - - - 13.3 1014.6 0.0
 
Date/Time
EDT
Wind Sea
Height
m
Swell Vis
km
Cloud Weather Temp
°C
Press
MSL
hPa
Rain since
9am
mm
Dir  Spd
kts
Gust
kts
Height
m
Period
s
Dir
02/11:30pm NW 20 24 - - - - - - - 13.6 1014.4 0.0
02/11:00pm NW 19 23 - - - - - - - 13.6 1014.4 0.0
02/10:30pm NW 16 22 - - - - - - - 13.5 1014.1 0.0
02/10:00pm WNW 19 24 - - - - - - - 13.6 1013.8 0.0
02/09:30pm WNW 20 24 - - - - - - - 13.6 1013.3 0.0
02/09:00pm WNW 17 20 - - - - - - - 13.4 1013.0 0.0
02/08:30pm WNW 14 16 - - - - - - - 13.3 1012.5 0.0
02/08:00pm WNW 15 17 - - - - - - - 13.2 1012.3 0.0
02/07:30pm WNW 15 18 - - - - - - - 13.2 1012.3 0.0
02/07:00pm WNW 14 17 - - - - - - - 13.2 1011.6 0.0
02/06:30pm W 14 18 - - - - - - - 13.4 1011.2 0.0
02/06:00pm W 12 15 - - - - - - - 13.4 1011.1 0.0
02/05:30pm W 10 13 - - - - - - - 13.5 1011.2 0.0
02/05:00pm W 10 13 - - - - - - - 13.6 1011.3 0.0
02/04:30pm WNW 9 11 - - - - - - - 13.6 1011.6 0.0
02/04:00pm W 11 13 - - - - - - - 13.7 1011.3 0.0
02/03:30pm W 10 15 - - - - - - - 14.1 1011.7 0.0
02/03:00pm W 10 13 - - - - - - - 14.2 1012.0 0.0
02/02:30pm W 11 14 - - - - - - - 14.6 1012.1 0.0
02/02:00pm W 13 16 - - - - - - - 14.8 1012.3 0.0
02/01:30pm W 14 16 - - - - - - - 15.2 1012.4 0.0
02/01:00pm W 14 16 - - - - - - - 15.7 1012.3 0.0
02/12:30pm W 12 16 - - - - - - - 16.4 1012.2 0.0
02/12:00pm WNW 14 17 - - - - - - - 17.1 1012.2 0.0
02/11:30am WNW 12 14 - - - - - - - 17.5 1012.4 0.0
02/11:00am NW 11 13 - - - - - - - 17.7 1012.4 0.0
02/10:30am NW 11 13 - - - - - - - 17.1 1012.6 0.0
02/10:00am NW 9 11 - - - - - - - 17.4 1012.5 0.0
02/09:30am WNW 9 11 - - - - - - - 16.6 1012.6 0.0
02/09:00am WNW 9 11 - - - - - - - 16.2 1012.3 0.0
02/08:30am W 4 6 - - - - - - - 15.3 1012.1 0.0
02/08:00am NE 4 6 - - - - - - - 15.2 1012.2 0.0
02/07:30am NE 5 6 - - - - - - - 14.7 1012.2 0.0
02/07:00am NNE 4 5 - - - - - - - 14.6 1012.5 0.0
02/06:30am ENE 4 5 - - - - - - - 14.1 1012.4 0.0
02/06:00am ENE 2 5 - - - - - - - 14.0 1012.5 0.0
02/05:30am CALM 0 0 - - - - - - - 14.2 1012.2 0.0
02/05:00am ENE 4 5 - - - - - - - 14.1 1012.1 0.0
02/04:30am ESE 4 6 - - - - - - - 14.1 1012.0 0.0
02/04:00am SE 7 9 - - - - - - - 14.3 1012.2 0.0
02/03:30am SE 8 11 - - - - - - - 14.3 1012.6 0.0
02/03:00am SE 8 11 - - - - - - - 14.2 1012.8 0.0
02/02:30am SE 9 11 - - - - - - - 14.3 1013.3 0.0
02/02:00am SSE 9 11 - - - - - - - 14.4 1013.8 0.0
02/01:30am SSE 9 11 - - - - - - - 14.3 1013.9 0.0
02/01:00am SSE 9 11 - - - - - - - 14.3 1014.0 0.0
02/12:30am SSE 8 10 - - - - - - - 14.3 1013.9 0.0
02/12:00am SSE 9 11 - - - - - - - 14.2 1014.2 0.0
 
Date/Time
EDT
Wind Sea
Height
m
Swell Vis
km
Cloud Weather Temp
°C
Press
MSL
hPa
Rain since
9am
mm
Dir  Spd
kts
Gust
kts
Height
m
Period
s
Dir
01/11:30pm SSE 9 11 - - - - - - - 13.8 1014.3 0.0
01/11:00pm SSE 7 8 - - - - - - - 13.3 1014.3 0.0
01/10:30pm SSE 7 9 - - - - - - - 13.2 1014.3 0.0
01/10:00pm SSE 7 9 - - - - - - - 13.1 1014.3 0.0
01/09:30pm SSE 7 8 - - - - - - - 13.2 1014.4 0.0
01/09:00pm SSE 7 8 - - - - - - - 13.4 1014.3 0.0
01/08:30pm SSE 7 8 - - - - - - - 14.0 1014.4 0.0
01/08:00pm SSE 6 8 - - - - - - - 14.8 1014.4 0.0
01/07:30pm SSE 6 7 - - - - - - - 15.4 1014.1 0.0
01/07:00pm S 6 8 - - - - - - - 15.5 1014.0 0.0
01/06:30pm S 6 9 - - - - - - - 15.8 1013.9 0.0
01/06:00pm SSW 6 10 - - - - - - - 15.9 1013.6 0.0
01/05:30pm SW 7 10 - - - - - - - 16.2 1013.5 0.0
01/05:00pm SW 8 11 - - - - - - - 16.3 1013.5 0.0
01/04:30pm WSW 9 11 - - - - - - - 16.4 1013.3 0.0
01/04:00pm W 9 11 - - - - - - - 16.9 1013.2 0.0
01/03:30pm WNW 12 14 - - - - - - - 17.3 1013.0 0.0
01/03:00pm NW 15 19 - - - - - - - 19.0 1012.9 0.0
01/02:30pm NW 16 18 - - - - - - - 18.5 1012.6 0.0
01/02:00pm NW 15 18 - - - - - - - 18.7 1012.4 0.0
01/01:30pm NW 15 18 - - - - - - - 18.3 1012.3 0.0
01/01:00pm NW 14 17 - - - - - - - 17.7 1012.5 0.0
01/12:30pm NW 14 16 - - - - - - - 17.2 1012.4 0.0
01/12:00pm NW 11 13 - - - - - - - 17.1 1012.2 0.0
01/11:30am NW 10 12 - - - - - - - 17.3 1012.2 0.0
01/11:00am WNW 11 14 - - - - - - - 17.3 1011.8 0.0
01/10:30am W 17 22 - - - - - - - 17.6 1011.4 0.0
01/10:00am W 18 23 - - - - - - - 18.6 1010.7 0.0
01/09:37am WNW 11 22 - - - - - - - 19.7 1009.8 0.0
01/09:30am NW 7 10 - - - - - - - 22.3 1009.3 0.0
01/09:00am N 12 18 - - - - - - - 24.1 1009.1 0.0
01/08:30am NNW 7 11 - - - - - - - 23.4 1009.1 0.0
01/08:00am NNE 9 13 - - - - - - - 21.4 1009.0 0.0
01/07:30am NNE 10 13 - - - - - - - 19.7 1008.9 0.0
01/07:00am NNE 11 14 - - - - - - - 18.7 1008.8 0.0
01/06:30am N 8 9 - - - - - - - 15.7 1008.9 0.0
01/06:00am N 6 8 - - - - - - - 15.3 1008.7 0.0
01/05:00am NNE 11 15 - - - - - - - 16.1 1008.6 0.0
01/04:30am NNE 9 13 - - - - - - - 15.8 1008.6 0.0
01/04:00am N 11 14 - - - - - - - 15.8 1009.0 0.0
01/03:30am N 10 12 - - - - - - - 15.7 1009.1 0.0
01/03:00am NNE 11 14 - - - - - - - 16.2 1009.3 0.0
01/02:30am NNE 12 15 - - - - - - - 16.3 1009.5 0.0
01/02:00am NNE 13 16 - - - - - - - 16.1 1009.7 0.0
01/01:30am NNE 13 16 - - - - - - - 16.0 1009.8 0.0
01/01:00am NNE 11 14 - - - - - - - 15.9 1010.0 0.0
01/12:30am NNE 12 14 - - - - - - - 15.9 1010.2 0.0
01/12:00am N 7 9 - - - - - - - 15.3 1010.5 0.0
 
Date/Time
EDT
Wind Sea
Height
m
Swell Vis
km
Cloud Weather Temp
°C
Press
MSL
hPa
Rain since
9am
mm
Dir  Spd
kts
Gust
kts
Height
m
Period
s
Dir
30/11:30pm N 8 11 - - - - - - - 15.8 1011.0 0.0
30/11:00pm N 10 12 - - - - - - - 16.1 1011.2 0.0
30/10:30pm N 10 11 - - - - - - - 16.6 1011.6 0.0
30/10:00pm NNE 9 11 - - - - - - - 16.1 1011.8 0.0
30/09:30pm N 7 9 - - - - - - - 16.4 1011.8 0.0
30/09:00pm N 5 6 - - - - - - - 16.4 1011.8 0.0
30/08:30pm N 5 6 - - - - - - - 17.2 1011.7 0.0
30/08:00pm NNW 4 5 - - - - - - - 18.7 1011.7 0.0
30/07:30pm NW 5 7 - - - - - - - 18.5 1011.6 0.0
30/07:00pm WNW 7 8 - - - - - - - 19.7 1011.3 0.0
30/06:30pm WSW 3 6 - - - - - - - 21.6 1011.1 0.0

Other formats

Comma delimited format used in spreadsheet applications
http://www.bom.gov.au/fwo/IDT60701/IDT60701.95961.axf

JavaScript Object Notation format (JSON) in row-major order
http://www.bom.gov.au/fwo/IDT60701/IDT60701.95961.json

Data quality

Most of these data are generated automatically and are frequently updated. Quality checks on data are not normally performed. It is possible for incorrect values to appear. Refer to information at About Latest Weather Observations and please check the disclaimer before using these data.